Time;durP1;ratioP1;P1;durP2;ratioP2;P2;SDS_P1;SDS_P2;PMS_P1;PMS_P2;Temp;Humidity;BMP_temperature;BMP_pressure;BME280_temperature;BME280_humidity;BME280_pressure;Samples;Min_cycle;Max_cycle;Signal;HPM_P1;HPM_P2
2023/04/29 00:00:20;;;;;;;68.70;28.37;;;;;;;8.85;100.00;63656.09;4967275;28;20055;-89
2023/04/29 00:02:45;;;;;;;66.95;26.15;;;;;;;8.82;100.00;63652.84;4954359;28;20027;-89
2023/04/29 00:05:11;;;;;;;63.73;26.53;;;;;;;8.78;100.00;63649.34;4962760;28;20034;-89
2023/04/29 00:07:36;;;;;;;64.53;25.87;;;;;;;8.76;100.00;63646.53;4972826;28;20077;-89
2023/04/29 00:10:02;;;;;;;62.40;24.47;;;;;;;8.73;100.00;63643.63;4944436;28;20121;-89
2023/04/29 00:12:29;;;;;;;56.80;24.03;;;;;;;8.70;100.00;63641.22;4957192;28;20330;-89
2023/04/29 00:14:54;;;;;;;59.75;25.80;;;;;;;8.68;100.00;63638.63;4959345;28;20027;-89
2023/04/29 00:17:20;;;;;;;59.17;25.15;;;;;;;8.65;100.00;63635.56;4952760;28;20019;-89
2023/04/29 00:19:45;;;;;;;55.73;24.37;;;;;;;8.62;100.00;63632.81;4971312;28;20062;-88
2023/04/29 00:22:10;;;;;;;58.20;24.67;;;;;;;8.60;100.00;63630.50;4953599;28;20503;-89
2023/04/29 00:24:36;;;;;;;53.90;23.97;;;;;;;8.57;100.00;63627.34;4952729;28;20506;-89
2023/04/29 00:27:01;;;;;;;60.23;25.50;;;;;;;8.55;100.00;63625.19;4962804;29;20027;-89
2023/04/29 00:29:27;;;;;;;59.28;24.60;;;;;;;8.53;100.00;63623.13;4954350;28;20023;-88
2023/04/29 00:31:52;;;;;;;57.87;25.33;;;;;;;8.51;100.00;63620.53;4952808;28;20035;-89
2023/04/29 00:34:17;;;;;;;59.93;25.23;;;;;;;8.48;100.00;63618.13;4954904;28;20031;-89
2023/04/29 00:36:43;;;;;;;56.80;25.17;;;;;;;8.46;100.00;63616.09;4952039;28;20028;-89
2023/04/29 00:39:08;;;;;;;55.17;24.88;;;;;;;8.44;100.00;63613.97;4960187;28;20046;-89
2023/04/29 00:41:33;;;;;;;53.13;24.67;;;;;;;8.43;100.00;63612.47;4955888;29;20054;-88
2023/04/29 00:43:59;;;;;;;54.53;24.37;;;;;;;8.41;100.00;63610.72;4955302;28;20035;-89
2023/04/29 00:46:24;;;;;;;52.27;24.47;;;;;;;8.39;100.00;63609.31;4955726;28;20024;-89
2023/04/29 00:48:50;;;;;;;48.87;24.00;;;;;;;8.37;100.00;63607.47;4967800;28;20029;-89
2023/04/29 00:51:16;;;;;;;45.63;23.15;;;;;;;8.36;100.00;63606.06;4954994;28;20536;-89
2023/04/29 00:53:41;;;;;;;52.00;24.00;;;;;;;8.33;100.00;63603.91;4937896;29;20042;-89
2023/04/29 00:56:07;;;;;;;49.17;24.08;;;;;;;8.32;100.00;63602.31;4952849;28;20039;-89
2023/04/29 00:58:34;;;;;;;43.83;22.60;;;;;;;8.30;100.00;63600.84;4974674;28;20027;-89
2023/04/29 01:01:03;;;;;;;47.40;23.23;;;;;;;8.29;100.00;63599.75;4957874;28;20103;-90
2023/04/29 01:03:30;;;;;;;45.27;23.13;;;;;;;8.27;100.00;63598.16;4956203;28;20326;-90
2023/04/29 01:06:28;;;;;;;44.00;22.65;;;;;;;8.26;100.00;63597.34;4957789;28;20082;-90
2023/04/29 01:09:17;;;;;;;45.95;23.05;;;;;;;8.25;100.00;63596.03;4943367;28;20027;-90
2023/04/29 01:12:05;;;;;;;42.65;22.70;;;;;;;8.24;100.00;63594.34;4939969;29;20031;-89
2023/04/29 01:14:33;;;;;;;42.63;21.90;;;;;;;8.23;100.00;63593.28;4970473;28;20030;-90
2023/04/29 01:17:04;;;;;;;36.53;21.38;;;;;;;8.21;100.00;63591.63;4972909;28;20054;-89
2023/04/29 01:19:45;;;;;;;40.35;21.08;;;;;;;8.19;100.00;63590.13;4965755;28;20038;-89
2023/04/29 01:22:11;;;;;;;35.95;20.15;;;;;;;8.18;100.00;63588.47;4986227;28;20047;-89
2023/04/29 01:24:37;;;;;;;42.13;22.55;;;;;;;8.16;100.00;63586.47;4932594;29;20087;-89
2023/04/29 01:27:18;;;;;;;38.83;21.73;;;;;;;8.14;100.00;63584.56;4944288;28;20019;-90
2023/04/29 01:29:58;;;;;;;44.40;22.57;;;;;;;8.11;100.00;63582.06;4968701;28;20305;-89
2023/04/29 01:32:49;;;;;;;44.60;24.08;;;;;;;8.09;100.00;63580.06;4950892;28;20042;-89
2023/04/29 01:35:46;;;;;;;46.53;22.77;;;;;;;8.08;100.00;63578.41;4956201;29;20440;-89
2023/04/29 01:38:38;;;;;;;43.63;22.25;;;;;;;8.07;100.00;63577.00;4956605;28;20471;-90
2023/04/29 01:41:15;;;;;;;42.28;22.83;;;;;;;8.05;100.00;63575.50;4970598;28;20027;-89
2023/04/29 01:43:41;;;;;;;47.70;24.60;;;;;;;8.03;100.00;63574.00;4962261;28;20039;-89
2023/04/29 01:46:15;;;;;;;47.90;23.77;;;;;;;8.02;100.00;63572.75;4937946;29;20028;-89
2023/04/29 01:48:40;;;;;;;47.38;24.70;;;;;;;8.01;100.00;63571.44;4939331;28;20102;-89
2023/04/29 01:51:06;;;;;;;47.63;23.67;;;;;;;8.00;100.00;63569.78;4954154;28;20467;-89
2023/04/29 01:53:32;;;;;;;51.40;24.97;;;;;;;7.98;100.00;63567.97;4951819;28;20031;-89
2023/04/29 01:55:57;;;;;;;54.17;24.80;;;;;;;7.97;100.00;63567.03;4959270;29;20031;-90
2023/04/29 01:58:23;;;;;;;50.07;25.17;;;;;;;7.96;100.00;63565.97;4953441;28;20460;-89
2023/04/29 02:00:48;;;;;;;49.83;25.30;;;;;;;7.95;100.00;63565.31;4952014;28;20102;-90
2023/04/29 02:03:13;;;;;;;51.53;26.63;;;;;;;7.94;100.00;63564.72;4960002;28;20289;-89
2023/04/29 02:05:39;;;;;;;52.40;25.17;;;;;;;7.94;100.00;63564.22;4965008;28;20042;-90
2023/04/29 02:08:06;;;;;;;58.83;27.10;;;;;;;7.93;100.00;63563.63;4952757;28;20167;-90
2023/04/29 02:10:32;;;;;;;53.97;26.75;;;;;;;7.93;100.00;63563.41;4943121;28;20072;-89
2023/04/29 02:12:57;;;;;;;56.83;26.70;;;;;;;7.93;100.00;63563.63;4958679;28;20113;-89
2023/04/29 02:15:26;;;;;;;58.33;27.33;;;;;;;7.93;100.00;63563.41;4974189;28;20302;-89
2023/04/29 02:17:51;;;;;;;54.47;26.23;;;;;;;7.93;100.00;63563.56;4959332;28;20031;-89
2023/04/29 02:20:16;;;;;;;59.07;26.77;;;;;;;7.92;100.00;63562.88;4955549;28;20031;-92
2023/04/29 02:22:42;;;;;;;60.77;27.77;;;;;;;7.92;100.00;63563.06;4953685;28;20123;-92
2023/04/29 02:25:08;;;;;;;56.33;27.00;;;;;;;7.92;100.00;63562.72;4933906;29;20031;-90
2023/04/29 02:27:33;;;;;;;68.72;28.50;;;;;;;7.91;100.00;63561.72;4951777;28;20031;-91
2023/04/29 02:29:58;;;;;;;62.47;26.77;;;;;;;7.91;100.00;63561.47;4966473;28;20009;-90
2023/04/29 02:32:24;;;;;;;61.43;27.00;;;;;;;7.91;100.00;63561.22;4967172;23;20256;-90
2023/04/29 02:34:50;;;;;;;62.60;27.73;;;;;;;7.90;100.00;63560.47;4954657;28;20295;-90
2023/04/29 02:37:16;;;;;;;59.40;27.13;;;;;;;7.90;100.00;63560.25;4971982;28;20027;-91
2023/04/29 02:39:41;;;;;;;66.57;27.77;;;;;;;7.89;100.00;63559.72;4954861;28;20497;-90
2023/04/29 02:42:06;;;;;;;74.93;29.20;;;;;;;7.88;100.00;63559.31;4955340;28;20510;-91
2023/04/29 02:44:32;;;;;;;64.17;27.03;;;;;;;7.88;100.00;63558.66;4946916;29;20023;-90
2023/04/29 02:46:57;;;;;;;62.73;26.97;;;;;;;7.87;100.00;63558.22;4956878;28;20298;-90
2023/04/29 02:49:22;;;;;;;71.43;28.73;;;;;;;7.86;100.00;63557.75;4962372;28;20090;-90
2023/04/29 02:51:48;;;;;;;71.47;28.40;;;;;;;7.85;100.00;63556.59;4951125;29;20035;-90
2023/04/29 02:54:15;;;;;;;71.80;27.83;;;;;;;7.85;100.00;63556.16;4969616;28;20137;-91
2023/04/29 02:56:41;;;;;;;74.07;29.50;;;;;;;7.85;100.00;63555.81;4952099;28;20474;-91
2023/04/29 02:59:06;;;;;;;75.73;29.43;;;;;;;7.84;100.00;63555.31;4958861;28;20066;-91
2023/04/29 03:01:31;;;;;;;72.43;29.00;;;;;;;7.83;100.00;63555.00;4953808;28;20031;-91
2023/04/29 03:03:57;;;;;;;76.38;29.02;;;;;;;7.82;100.00;63554.09;4963763;28;20829;-91
2023/04/29 03:06:22;;;;;;;76.37;30.07;;;;;;;7.82;100.00;63554.00;4946759;29;20062;-91
2023/04/29 03:08:47;;;;;;;76.87;29.87;;;;;;;7.82;100.00;63553.91;4936725;29;20073;-92
2023/04/29 03:11:13;;;;;;;74.67;30.30;;;;;;;7.82;100.00;63553.75;4952702;29;20053;-91
2023/04/29 03:13:38;;;;;;;77.83;29.03;;;;;;;7.81;100.00;63553.41;4952608;28;20035;-90
2023/04/29 03:16:05;;;;;;;76.57;30.00;;;;;;;7.80;100.00;63552.50;4953711;29;20306;-91
2023/04/29 03:18:31;;;;;;;86.07;31.30;;;;;;;7.80;100.00;63551.75;4936371;29;20027;-91
2023/04/29 03:20:56;;;;;;;78.17;30.20;;;;;;;7.79;100.00;63551.25;4937044;29;20293;-91
2023/04/29 03:23:21;;;;;;;76.32;29.15;;;;;;;7.78;100.00;63551.03;4938409;28;20032;-92
2023/04/29 03:25:47;;;;;;;82.93;30.63;;;;;;;7.78;100.00;63550.75;4935099;29;20032;-91
2023/04/29 03:28:12;;;;;;;74.10;29.50;;;;;;;7.77;100.00;63550.41;4917465;29;20024;-91
2023/04/29 03:30:37;;;;;;;83.17;30.63;;;;;;;7.76;100.00;63549.25;4941338;29;20114;-91
2023/04/29 03:33:03;;;;;;;80.20;29.77;;;;;;;7.76;100.00;63548.94;4946599;28;20045;-91
2023/04/29 03:35:28;;;;;;;76.80;29.10;;;;;;;7.75;100.00;63548.09;4952181;29;20529;-91
2023/04/29 03:37:53;;;;;;;80.87;29.27;;;;;;;7.74;100.00;63547.59;4930577;29;20024;-91
2023/04/29 03:40:19;;;;;;;79.57;29.02;;;;;;;7.73;100.00;63546.63;4935460;29;20040;-91
2023/04/29 03:42:44;;;;;;;79.37;29.47;;;;;;;7.72;100.00;63546.09;4952885;29;20046;-91
2023/04/29 03:45:12;;;;;;;78.97;29.03;;;;;;;7.72;100.00;63545.78;4951564;28;20523;-91
2023/04/29 03:47:37;;;;;;;75.60;28.63;;;;;;;7.71;100.00;63544.22;4949666;29;20027;-91
2023/04/29 03:50:03;;;;;;;74.50;29.10;;;;;;;7.70;100.00;63544.03;4952082;29;20054;-91
2023/04/29 03:52:28;;;;;;;76.93;28.70;;;;;;;7.69;100.00;63542.88;4941190;29;20028;-91
2023/04/29 03:54:54;;;;;;;68.07;27.67;;;;;;;7.68;100.00;63542.28;4944825;29;20047;-91
2023/04/29 03:57:19;;;;;;;73.23;27.13;;;;;;;7.67;100.00;63541.13;4953589;28;20486;-91
2023/04/29 03:59:48;;;;;;;76.85;27.50;;;;;;;7.67;100.00;63540.78;4953702;28;20031;-92
2023/04/29 04:02:14;;;;;;;74.97;27.53;;;;;;;7.66;100.00;63539.97;4950432;28;20114;-91
2023/04/29 04:04:40;;;;;;;70.18;26.50;;;;;;;7.66;100.00;63539.72;4953001;29;20058;-91
2023/04/29 04:07:05;;;;;;;68.70;27.60;;;;;;;7.66;100.00;63539.47;4935132;29;20042;-90
2023/04/29 04:09:32;;;;;;;74.90;28.02;;;;;;;7.65;100.00;63539.38;4934478;29;20035;-91
2023/04/29 04:11:57;;;;;;;71.80;27.80;;;;;;;7.65;100.00;63539.38;4952751;28;20054;-89
2023/04/29 04:14:23;;;;;;;75.78;28.08;;;;;;;7.65;100.00;63539.56;4958442;29;20108;-89
2023/04/29 04:16:49;;;;;;;74.67;28.93;;;;;;;7.66;100.00;63540.13;4956391;29;20511;-88
2023/04/29 04:19:15;;;;;;;68.75;28.30;;;;;;;7.66;100.00;63540.47;4965808;29;20041;-88
2023/04/29 04:21:41;;;;;;;75.63;28.93;;;;;;;7.65;100.00;63540.22;4955009;29;20023;-88
2023/04/29 04:24:07;;;;;;;72.80;28.85;;;;;;;7.65;100.00;63539.88;4953901;29;20079;-88
2023/04/29 04:26:32;;;;;;;75.72;28.20;;;;;;;7.64;100.00;63538.88;4936794;29;20046;-90
2023/04/29 04:28:57;;;;;;;65.50;26.77;;;;;;;7.64;100.00;63538.31;4935681;29;20036;-90
2023/04/29 04:31:23;;;;;;;68.00;26.73;;;;;;;7.64;100.00;63537.81;4940292;29;20028;-90
2023/04/29 04:33:48;;;;;;;70.55;26.45;;;;;;;7.64;100.00;63537.91;4942347;28;20035;-91
2023/04/29 04:36:13;;;;;;;71.03;26.47;;;;;;;7.64;100.00;63538.06;4951225;29;20035;-87
2023/04/29 04:38:40;;;;;;;67.37;26.60;;;;;;;7.64;100.00;63538.06;4951599;29;20170;-87
2023/04/29 04:41:06;;;;;;;66.50;26.52;;;;;;;7.64;100.00;63538.06;4946851;29;20035;-88
2023/04/29 04:43:32;;;;;;;62.85;25.95;;;;;;;7.65;100.00;63538.72;4937330;29;20691;-88
2023/04/29 04:45:58;;;;;;;66.17;25.70;;;;;;;7.65;100.00;63538.72;4934420;29;20027;-87
2023/04/29 04:48:23;;;;;;;66.95;27.10;;;;;;;7.65;100.00;63538.91;4951803;29;20121;-88
2023/04/29 04:50:51;;;;;;;65.20;26.73;;;;;;;7.65;100.00;63538.56;4946954;29;20604;-88
2023/04/29 04:53:17;;;;;;;59.47;24.73;;;;;;;7.65;100.00;63538.38;4951438;29;20045;-88
2023/04/29 04:55:42;;;;;;;59.87;24.03;;;;;;;7.64;100.00;63537.91;4940000;28;20039;-89
2023/04/29 04:58:07;;;;;;;59.10;24.53;;;;;;;7.65;100.00;63538.66;4935009;28;20471;-88
2023/04/29 05:00:33;;;;;;;56.40;24.83;;;;;;;7.66;100.00;63539.47;4952151;29;20023;-88
2023/04/29 05:02:59;;;;;;;55.77;24.00;;;;;;;7.66;100.00;63539.72;4946769;28;20031;-88
2023/04/29 05:05:24;;;;;;;57.87;24.93;;;;;;;7.67;100.00;63540.38;4933731;29;20039;-89
2023/04/29 05:07:50;;;;;;;58.65;23.88;;;;;;;7.67;100.00;63540.97;4961153;29;20043;-88
2023/04/29 05:10:15;;;;;;;51.93;23.30;;;;;;;7.67;100.00;63541.28;4953445;29;20058;-88
2023/04/29 05:12:40;;;;;;;51.30;23.60;;;;;;;7.66;100.00;63540.31;4934394;29;20066;-88
2023/04/29 05:15:09;;;;;;;52.60;23.00;;;;;;;7.66;100.00;63540.47;4937453;29;20350;-88
2023/04/29 05:29:20;;;;;;;57.08;23.33;;;;;;;7.70;100.00;63544.78;4949681;29;20043;-87
2023/04/29 05:34:18;;;;;;;50.85;22.55;;;;;;;7.72;100.00;63545.84;5036682;23;20474;-87
2023/04/29 05:36:46;;;;;;;52.72;23.30;;;;;;;7.71;100.00;63545.34;4955054;29;20034;-87
2023/04/29 05:39:21;;;;;;;50.40;22.73;;;;;;;7.71;100.00;63544.88;4953255;28;20134;-86
2023/04/29 05:41:54;;;;;;;53.58;23.98;;;;;;;7.71;100.00;63545.34;4937959;29;20039;-89
2023/04/29 05:44:35;;;;;;;52.15;22.98;;;;;;;7.71;100.00;63545.28;4945595;29;20031;-90
2023/04/29 05:47:00;;;;;;;50.30;23.33;;;;;;;7.71;100.00;63545.19;4934611;28;20043;-87
2023/04/29 05:49:26;;;;;;;48.23;21.47;;;;;;;7.71;100.00;63545.19;4964801;28;20286;-88
2023/04/29 05:52:05;;;;;;;52.43;21.70;;;;;;;7.71;100.00;63545.44;4955341;29;20027;-87
2023/04/29 05:54:31;;;;;;;46.10;21.13;;;;;;;7.72;100.00;63546.44;4940264;29;20685;-86
2023/04/29 05:57:05;;;;;;;47.22;22.67;;;;;;;7.71;100.00;63545.94;4955029;28;20027;-87
2023/04/29 05:59:31;;;;;;;48.63;22.73;;;;;;;7.71;100.00;63546.25;4945283;28;20173;-86
2023/04/29 06:02:06;;;;;;;48.50;21.70;;;;;;;7.73;100.00;63547.44;4954541;29;20769;-86
2023/04/29 06:04:39;;;;;;;44.15;21.10;;;;;;;7.74;100.00;63548.69;4954957;29;20027;-86
2023/04/29 06:07:07;;;;;;;48.28;22.73;;;;;;;7.74;100.00;63548.44;4953171;28;20106;-88
2023/04/29 06:09:35;;;;;;;47.00;22.05;;;;;;;7.74;100.00;63548.94;4938301;29;20053;-87
2023/04/29 06:12:05;;;;;;;45.88;22.25;;;;;;;7.76;100.00;63551.06;4954174;28;20053;-88
2023/04/29 06:14:35;;;;;;;49.53;22.35;;;;;;;7.76;100.00;63551.00;4954131;22;20043;-87
2023/04/29 06:23:14;;;;;;;49.83;22.13;;;;;;;7.83;100.00;63557.81;6034321;23;22243;-88
2023/04/29 06:25:42;;;;;;;48.22;21.77;;;;;;;7.83;100.00;63557.81;4955627;28;20122;-87
2023/04/29 06:28:53;;;;;;;42.17;21.58;;;;;;;7.85;100.00;63560.53;4968912;28;20057;-88
2023/04/29 06:54:30;;;;;;;42.17;21.00;;;;;;;8.17;100.00;63591.84;4951322;29;20117;-85
2023/04/29 06:57:08;;;;;;;39.90;20.13;;;;;;;8.21;100.00;63596.81;4953359;29;20031;-86
2023/04/29 06:59:44;;;;;;;38.42;19.55;;;;;;;8.27;100.00;63602.38;4939512;29;20514;-86
2023/04/29 07:02:10;;;;;;;40.35;19.77;;;;;;;8.33;100.00;63608.94;4940922;29;20119;-86
2023/04/29 07:04:53;;;;;;;43.40;20.83;;;;;;;8.41;100.00;63617.00;4940566;29;20070;-86
2023/04/29 07:07:19;;;;;;;38.70;19.35;;;;;;;8.48;100.00;63624.50;4948468;29;20055;-85
2023/04/29 07:09:50;;;;;;;33.13;19.10;;;;;;;8.54;100.00;63630.81;4969746;29;20031;-86
2023/04/29 07:12:15;;;;;;;35.35;19.10;;;;;;;8.61;100.00;63637.84;4979854;28;20078;-86
2023/04/29 07:14:42;;;;;;;34.30;19.43;;;;;;;8.67;100.00;63643.59;4971849;29;20028;-87
2023/04/29 07:17:07;;;;;;;33.05;19.73;;;;;;;8.74;100.00;63650.91;4965756;29;20437;-87
2023/04/29 07:19:33;;;;;;;35.13;18.23;;;;;;;8.80;100.00;63657.38;4973873;28;20077;-85
2023/04/29 07:21:58;;;;;;;36.13;18.47;;;;;;;8.86;100.00;63663.84;4953524;29;20035;-85
2023/04/29 07:24:24;;;;;;;36.00;17.73;;;;;;;8.93;100.00;63670.41;4956107;28;20082;-85
2023/04/29 07:26:49;;;;;;;29.90;16.47;;;;;;;8.99;100.00;63676.31;4953729;29;20049;-85
2023/04/29 07:29:15;;;;;;;34.95;17.25;;;;;;;9.05;100.00;63682.47;4939381;29;20039;-85
2023/04/29 07:31:40;;;;;;;30.13;16.53;;;;;;;9.11;100.00;63689.19;4936572;29;20495;-86
2023/04/29 07:34:05;;;;;;;28.20;15.67;;;;;;;9.18;100.00;63695.94;4939701;28;20031;-86
2023/04/29 07:36:31;;;;;;;28.40;15.97;;;;;;;9.24;100.00;63702.50;4965471;28;20042;-84
2023/04/29 07:38:58;;;;;;;28.83;15.90;;;;;;;9.30;100.00;63708.63;4947296;29;20031;-86
2023/04/29 07:41:23;;;;;;;27.35;15.95;;;;;;;9.37;100.00;63714.97;4946477;29;20484;-86
2023/04/29 07:43:48;;;;;;;28.37;15.27;;;;;;;9.42;100.00;63720.94;4933600;29;20024;-86
2023/04/29 07:47:17;;;;;;;24.20;14.97;;;;;;;9.48;100.00;63727.00;4935863;29;20020;-88
2023/04/29 07:49:43;;;;;;;25.65;14.35;;;;;;;9.54;100.00;63732.66;4865514;29;20045;-88
2023/04/29 07:52:08;;;;;;;22.60;14.20;;;;;;;9.59;100.00;63738.13;4855712;29;20037;-87
2023/04/29 07:54:41;;;;;;;25.40;14.53;;;;;;;9.64;100.00;63743.06;4904062;29;20412;-88
2023/04/29 07:57:07;;;;;;;25.60;14.02;;;;;;;9.70;100.00;63749.03;4935177;29;20022;-85
2023/04/29 07:59:32;;;;;;;23.63;14.37;;;;;;;9.79;100.00;63757.75;4933847;29;20118;-84
2023/04/29 08:02:03;;;;;;;24.63;13.80;;;;;;;9.87;100.00;63766.56;4953198;29;20031;-84
2023/04/29 08:04:30;;;;;;;25.40;14.00;;;;;;;9.94;100.00;63773.38;4954598;29;20028;-85
2023/04/29 08:07:40;;;;;;;;;;;;;;;;;;;;;
2023/04/29 08:10:07;;;;;;;22.63;13.32;;;;;;;10.08;100.00;63788.19;4939997;29;20039;-85
2023/04/29 08:12:33;;;;;;;23.27;13.15;;;;;;;10.14;100.00;63794.25;4953237;29;20098;-85
2023/04/29 08:15:20;;;;;;;23.52;14.10;;;;;;;10.22;100.00;63802.31;4951861;29;20475;-85
2023/04/29 08:17:45;;;;;;;27.67;13.27;;;;;;;10.29;100.00;63808.97;4952848;29;20059;-85
2023/04/29 08:20:17;;;;;;;24.43;14.20;;;;;;;10.36;100.00;63815.97;4951591;29;20422;-85
2023/04/29 08:22:46;;;;;;;23.63;12.43;;;;;;;10.41;100.00;63821.72;4934364;29;20349;-86
2023/04/29 08:41:10;;;;;;;15.38;10.73;;;;;;;11.01;100.00;63882.72;4933537;29;20525;-85
2023/04/29 08:47:00;;;;;;;16.63;11.10;;;;;;;11.24;100.00;63906.91;4895908;29;20079;-84
2023/04/29 08:52:18;;;;;;;20.02;10.70;;;;;;;11.47;100.00;63929.72;4896458;29;20054;-84
2023/04/29 08:54:43;;;;;;;15.77;10.25;;;;;;;11.58;98.04;63940.63;4907773;29;20087;-85
2023/04/29 08:57:10;;;;;;;15.60;10.60;;;;;;;11.67;97.38;63950.03;4926691;29;20635;-85
2023/04/29 08:59:37;;;;;;;18.17;9.82;;;;;;;11.77;97.94;63960.19;4915732;29;20032;-86
2023/04/29 09:02:07;;;;;;;15.95;10.07;;;;;;;11.87;98.28;63969.78;4915135;29;20024;-85
2023/04/29 09:04:51;;;;;;;15.00;10.50;;;;;;;11.95;96.17;63978.75;4922446;29;20060;-86
2023/04/29 09:07:17;;;;;;;15.60;9.97;;;;;;;12.03;94.77;63986.69;4899492;29;20063;-84
2023/04/29 09:09:42;;;;;;;16.83;10.45;;;;;;;12.10;96.79;63994.44;4898755;29;20477;-85
2023/04/29 09:12:08;;;;;;;21.97;10.13;;;;;;;12.18;94.75;64002.44;4899535;29;20035;-84
2023/04/29 09:14:35;;;;;;;15.90;9.67;;;;;;;12.27;94.66;64011.00;4904047;29;20028;-85
2023/04/29 09:17:00;;;;;;;14.67;10.50;;;;;;;12.36;94.76;64019.84;4923475;29;20303;-85
2023/04/29 09:19:31;;;;;;;19.17;10.77;;;;;;;12.45;95.63;64029.34;4935694;29;20431;-87
2023/04/29 10:20:07;;;;;;;14.30;8.65;;;;;;;14.13;82.76;64200.81;4953809;29;20067;-85
2023/04/29 10:39:31;;;;;;;12.35;8.18;;;;;;;14.60;77.70;64249.94;5012971;28;20069;-85
2023/04/29 10:41:57;;;;;;;14.73;8.70;;;;;;;14.63;76.57;64253.13;4996463;28;21223;-86
2023/04/29 10:44:22;;;;;;;16.25;8.55;;;;;;;14.65;76.13;64255.53;4972501;28;20034;-86
2023/04/29 10:47:32;;;;;;;12.50;8.60;;;;;;;14.69;80.21;64258.97;4975112;28;20069;-86
2023/04/29 10:52:51;;;;;;;14.63;8.05;;;;;;;14.81;72.65;64271.75;5574436;23;20714;-85
2023/04/29 10:55:18;;;;;;;14.10;8.35;;;;;;;14.89;73.91;64279.50;4973410;28;20129;-86
2023/04/29 10:57:43;;;;;;;13.27;8.50;;;;;;;14.96;71.82;64286.59;4974542;28;20031;-86
2023/04/29 11:00:30;;;;;;;10.97;8.50;;;;;;;15.02;75.46;64292.59;4986411;28;20037;-86
2023/04/29 11:02:57;;;;;;;11.88;8.20;;;;;;;15.06;72.14;64297.47;4973468;28;20068;-86
2023/04/29 11:05:33;;;;;;;16.20;8.27;;;;;;;15.09;74.44;64300.78;4952698;28;20074;-86
2023/04/29 11:08:22;;;;;;;12.27;8.38;;;;;;;15.11;74.31;64302.47;4934857;29;20027;-87
2023/04/29 11:10:51;;;;;;;12.65;8.45;;;;;;;15.11;73.65;64302.88;4970619;28;20030;-86
2023/04/29 11:13:27;;;;;;;12.03;7.93;;;;;;;15.12;77.21;64304.13;4973534;28;20023;-87
2023/04/29 11:16:04;;;;;;;13.87;8.20;;;;;;;15.12;76.54;64304.22;4972976;28;20278;-87
2023/04/29 11:18:29;;;;;;;12.85;7.72;;;;;;;15.13;74.30;64304.81;4980935;28;20026;-87
2023/04/29 11:21:07;;;;;;;13.95;8.18;;;;;;;15.14;78.33;64306.22;4986640;28;20107;-87
2023/04/29 11:23:35;;;;;;;11.87;7.80;;;;;;;15.16;75.58;64308.56;4975238;28;20046;-87
2023/04/29 11:26:01;;;;;;;12.50;7.97;;;;;;;15.19;73.15;64311.91;4956122;28;20782;-87
2023/04/29 11:28:29;;;;;;;13.00;7.70;;;;;;;15.22;71.33;64314.56;4953277;28;20077;-87
2023/04/29 11:30:55;;;;;;;13.60;7.70;;;;;;;15.25;72.58;64317.72;4962285;28;20031;-86
2023/04/29 11:33:21;;;;;;;14.55;8.25;;;;;;;15.27;71.53;64319.97;4953341;29;20062;-87
2023/04/29 11:35:46;;;;;;;14.10;8.27;;;;;;;15.29;70.47;64322.84;4935814;29;20483;-87
2023/04/29 11:38:12;;;;;;;10.85;7.57;;;;;;;15.34;69.24;64327.25;4963091;28;20038;-87
2023/04/29 11:40:50;;;;;;;11.80;7.57;;;;;;;15.40;68.70;64333.25;4952919;28;20174;-87
2023/04/29 11:43:19;;;;;;;11.27;7.57;;;;;;;15.48;70.42;64342.19;4952770;29;20400;-87
2023/04/29 11:45:45;;;;;;;13.25;7.30;;;;;;;15.58;64.42;64351.63;4952702;29;20031;-86
2023/04/29 11:48:23;;;;;;;11.73;6.90;;;;;;;15.67;64.42;64360.91;4951561;29;20035;-86
2023/04/29 11:50:51;;;;;;;13.23;6.47;;;;;;;15.75;62.88;64369.91;4971327;28;20031;-86
2023/04/29 11:53:19;;;;;;;11.82;7.22;;;;;;;15.82;61.69;64377.19;4971910;28;20742;-86
2023/04/29 11:55:46;;;;;;;11.15;6.50;;;;;;;15.88;61.44;64383.38;4970856;28;20027;-86
2023/04/29 11:58:13;;;;;;;9.52;6.75;;;;;;;15.95;64.25;64390.66;4971531;28;20070;-86
2023/04/29 12:00:38;;;;;;;8.63;6.70;;;;;;;16.03;61.38;64399.00;4971546;28;20083;-87
2023/04/29 12:03:13;;;;;;;10.43;6.73;;;;;;;16.11;61.62;64407.94;4971979;28;20652;-86
2023/04/29 12:05:53;;;;;;;9.38;6.47;;;;;;;16.20;62.32;64416.88;4969978;28;20062;-86
2023/04/29 12:08:19;;;;;;;9.82;6.50;;;;;;;16.31;60.76;64428.16;4972972;28;20467;-86
2023/04/29 12:10:46;;;;;;;12.33;6.13;;;;;;;16.43;59.07;64439.78;4953711;28;20062;-86
2023/04/29 12:13:16;;;;;;;8.10;6.10;;;;;;;16.55;59.45;64452.63;4971566;28;20674;-87
2023/04/29 12:15:43;;;;;;;9.98;6.55;;;;;;;16.66;56.84;64464.06;4974204;28;20030;-87
2023/04/29 12:18:09;;;;;;;9.02;6.20;;;;;;;16.74;55.36;64472.03;4971941;28;20046;-86
2023/04/29 12:20:38;;;;;;;8.07;6.17;;;;;;;16.81;56.46;64479.47;4953117;28;20043;-86
2023/04/29 12:23:14;;;;;;;6.80;5.70;;;;;;;16.88;58.26;64487.41;4953858;28;20114;-86
2023/04/29 12:25:41;;;;;;;8.32;6.03;;;;;;;16.97;58.46;64497.03;4955100;28;20039;-85
2023/04/29 12:28:13;;;;;;;7.35;5.95;;;;;;;17.07;57.68;64507.31;4952003;29;20030;-86
2023/04/29 12:30:39;;;;;;;10.15;5.97;;;;;;;17.20;56.94;64519.84;4949016;29;20455;-86
2023/04/29 12:33:08;;;;;;;8.80;6.15;;;;;;;17.32;54.60;64532.22;4952128;28;20031;-85
2023/04/29 12:35:33;;;;;;;7.97;6.23;;;;;;;17.39;55.59;64539.25;4975334;28;20037;-86
2023/04/29 12:38:01;;;;;;;9.02;5.88;;;;;;;17.44;55.82;64544.19;4975345;28;20027;-86
2023/04/29 12:40:27;;;;;;;7.72;6.30;;;;;;;17.48;57.96;64548.53;4974655;28;20569;-87
2023/04/29 12:42:53;;;;;;;9.33;6.30;;;;;;;17.53;57.73;64553.13;4971119;28;20043;-83
2023/04/29 12:45:32;;;;;;;11.20;6.72;;;;;;;17.58;59.40;64558.97;4975635;28;20027;-84
2023/04/29 12:47:59;;;;;;;8.90;6.07;;;;;;;17.62;56.96;64562.84;4974916;28;20023;-85
2023/04/29 12:50:36;;;;;;;8.60;6.53;;;;;;;17.65;58.44;64565.84;4974378;28;20027;-83
2023/04/29 12:53:03;;;;;;;13.55;6.93;;;;;;;17.71;57.85;64571.94;4953108;28;20031;-83
2023/04/29 12:55:30;;;;;;;11.20;6.65;;;;;;;17.78;56.57;64579.28;4974366;28;20094;-83
2023/04/29 12:57:56;;;;;;;9.63;6.70;;;;;;;17.85;55.77;64586.91;4974543;28;20434;-84
2023/04/29 13:00:22;;;;;;;12.20;6.70;;;;;;;17.92;54.26;64594.03;4974606;28;20310;-85
2023/04/29 13:02:47;;;;;;;8.47;5.60;;;;;;;17.98;53.54;64600.31;4971837;28;20035;-84
2023/04/29 13:05:13;;;;;;;10.60;6.67;;;;;;;18.05;52.51;64607.44;4974713;28;20382;-81
2023/04/29 13:07:38;;;;;;;8.88;5.97;;;;;;;18.11;51.22;64614.88;4974266;28;20029;-82
2023/04/29 13:17:12;;;;;;;7.83;5.50;;;;;;;18.18;57.16;64622.56;4911347;29;20111;-83
2023/04/29 13:19:39;;;;;;;8.13;5.63;;;;;;;18.17;55.97;64621.56;4911950;29;20316;-86
2023/04/29 13:22:06;;;;;;;8.00;5.68;;;;;;;18.15;56.84;64619.47;4908624;29;20032;-86
2023/04/29 13:24:31;;;;;;;7.65;5.40;;;;;;;18.11;58.18;64615.13;4951494;28;20507;-85
2023/04/29 13:26:57;;;;;;;8.07;5.80;;;;;;;18.06;59.65;64609.78;4984810;28;20023;-85
2023/04/29 13:29:22;;;;;;;8.07;6.00;;;;;;;17.99;58.39;64603.00;4966886;28;20035;-85
2023/04/29 13:31:48;;;;;;;7.23;5.77;;;;;;;17.92;61.45;64595.09;4948510;28;20026;-85
2023/04/29 13:34:42;;;;;;;8.90;6.10;;;;;;;17.84;60.99;64586.50;5366547;23;20047;-84
2023/04/29 13:37:07;;;;;;;8.13;6.05;;;;;;;17.75;60.42;64577.38;4978263;28;20042;-84
2023/04/29 13:39:33;;;;;;;7.23;5.40;;;;;;;17.69;61.26;64570.53;4980123;28;20039;-83
2023/04/29 13:41:58;;;;;;;8.97;5.60;;;;;;;17.66;62.04;64567.09;4983766;28;20288;-84
2023/04/29 13:44:23;;;;;;;9.37;5.80;;;;;;;17.64;60.26;64565.50;4987154;28;20023;-86
2023/04/29 13:46:50;;;;;;;7.00;5.53;;;;;;;17.64;56.10;64565.91;4976929;28;20014;-90
2023/04/29 13:49:16;;;;;;;8.07;5.43;;;;;;;17.65;56.61;64566.50;4944100;29;20495;-92
2023/04/29 13:51:41;;;;;;;7.47;5.53;;;;;;;17.66;56.19;64568.03;4965422;29;20054;-92
2023/04/29 13:54:06;;;;;;;8.63;5.80;;;;;;;17.70;54.47;64571.53;4973191;29;20469;-92
2023/04/29 13:56:32;;;;;;;10.43;5.80;;;;;;;17.76;54.34;64577.44;4952436;29;20081;-93
2023/04/29 13:58:57;;;;;;;7.47;5.50;;;;;;;17.84;55.84;64586.25;4948727;29;20027;-93